Hlavní strana
METAR-TAF:

METAR-TAF

Letiště :

Christchurch, Nový Zéland

zeměpisná šířka: 43-29S, zeměpisná délka: 172-33E, výška: 38 m

Aktuální stav počasí

Zpráva byla vytvořena před 38 minutami, v 14:00 UTC
Severozápadní vítr 5 kt, proměnlivý mezi západoseverozápadním a severoseverovýchodním
Teplota 7°C
Vlhkost vzduchu 57%
Tlak 998 hPa
Viditelnost 10 km a více

METAR: NZCH 241400Z AUTO 32005KT 290V020 9999 NCD 07/M01 Q0998 NOSIG

Čas: 02:38 (14:38 UTC)

Předpověď počasí

Zpráva byla vytvořena před 3 hodinami a 35 minutami, v 11:03 UTC
Předpověď platná od 24 v 12 UTC do 25 v 12 UTC
Západoseverozápadní vítr 10 kt
Viditelnost 10 km a více
Žádná oblačnost pod 1500 m, nevyskytují se cumulonimby.
Změna
od 24 v 18 UTC do 24 v 20 UTC
Západojihozápadní vítr 5 kt

TAF: NZCH 241103Z 2412/2512 30010KT CAVOK BECMG 2418/2420 25005KT

Stav a předpovědi počasí z více než 4 000 letišť (zprávy METAR a TAF).

Červené a žluté tečky na mapě představují dostupné meteorologické stanice.

Když kurzor umístíte na tečku, zobrazí se název stanice.

Pak kliknutím zobrazíte stav a předpověď počasí.

Chcete-li změnit mapu, kliknutím na zelené tlačítko se znaménkem +mapu přiblížíte, kliknutím na zelené tlačítko se znaménkem – mapu oddálíte a kliknutím na zelené šipky přejdete na sousední mapy.


METAR-TAF: